This is the latest recevied weather packets stored in our database for station/object W5GMO. If no packets are shown the sender has not sent any weather packets the latest 10 day(s).
| Time | Temp. | Humidity | Pressure | Rain* | Wind** | Luminosity | Snow |
|---|---|---|---|---|---|---|---|
| 1777579751 | 19.44° C | 33% | 1008.6 hPa | 0 mm | - | 201 W/m² | - |
| 1777579449 | 20° C | 32% | 1008.3 hPa | 0 mm | - | 158 W/m² | - |
| 1777578845 | 20.56° C | 30% | 1008.4 hPa | 0 mm | - | 586 W/m² | - |
| 1777577931 | 20.56° C | 32% | 1008.3 hPa | 0 mm | - | 667 W/m² | - |
| 1777577626 | 20.56° C | 33% | 1008.3 hPa | 0 mm | - | 196 W/m² | - |
| 1777577020 | 20.56° C | 32% | 1008.3 hPa | 0 mm | - | 612 W/m² | - |
| 1777576416 | 20.56° C | 33% | 1008.5 hPa | 0 mm | - | 740 W/m² | - |
| 1777574291 | 20.56° C | 36% | 1008.5 hPa | 0 mm | - | 806 W/m² | - |
| 1777573378 | 19.44° C | 36% | 1008.7 hPa | 0 mm | - | 267 W/m² | - |
| 1777572771 | 20° C | 37% | 1008.5 hPa | 0 mm | - | 215 W/m² | - |
| 1777570344 | 19.44° C | 37% | 1008.7 hPa | 0 mm | - | 829 W/m² | - |
| 1777569431 | 20° C | 36% | 1009 hPa | 0 mm | - | 820 W/m² | - |
| 1777568825 | 18.89° C | 38% | 1009 hPa | 0 mm | - | 879 W/m² | - |
| 1777565182 | 18.89° C | 42% | 1009.3 hPa | 0 mm | - | 286 W/m² | - |
| 1777564270 | 18.33° C | 44% | 1009.6 hPa | 0 mm | - | 864 W/m² | - |
| 1777563663 | 18.33° C | 44% | 1009.5 hPa | 0 mm | - | 832 W/m² | - |
| 1777563361 | 18.33° C | 44% | 1009.6 hPa | 0 mm | - | 788 W/m² | - |
| 1777563058 | 18.33° C | 43% | 1009.7 hPa | 0 mm | - | 221 W/m² | - |
| 1777562754 | 18.33° C | 44% | 1009.6 hPa | 0 mm | - | 464 W/m² | - |
| 1777562149 | 18.33° C | 44% | 1009.6 hPa | 0 mm | - | 736 W/m² | - |
| 1777561239 | 17.78° C | 47% | 1009.9 hPa | 0 mm | - | 193 W/m² | - |
| 1777560938 | 17.78° C | 47% | 1009.9 hPa | 0 mm | - | 230 W/m² | - |
| 1777560333 | 18.33° C | 47% | 1009.7 hPa | 0 mm | - | 181 W/m² | - |
| 1777559726 | 18.33° C | 48% | 1009.9 hPa | 0 mm | - | 628 W/m² | - |
| 1777558815 | 17.22° C | 53% | 1009.9 hPa | 0 mm | - | 589 W/m² | - |
* Rain latest hour (hover to see other rain measurements)
** Current wind speed in m/s (hover to see current wind gust speed)